Time;durP1;ratioP1;P1;durP2;ratioP2;P2;SDS_P1;SDS_P2;PMS_P1;PMS_P2;Temp;Humidity;BMP_temperature;BMP_pressure;BME280_temperature;BME280_humidity;BME280_pressure;Samples;Min_cycle;Max_cycle;Signal;HPM_P1;HPM_P2
2023/10/19 00:00:36;;;;;;;1.97;1.97;;;19.10;70.60;;;;;;5107207;27;44490;-74
2023/10/19 00:03:03;;;;;;;1.90;1.90;;;19.00;70.60;;;;;;5107126;27;43416;-70
2023/10/19 00:05:32;;;;;;;2.10;2.00;;;19.00;71.60;;;;;;5109827;27;43389;-71
2023/10/19 00:08:00;;;;;;;2.27;2.27;;;18.90;71.10;;;;;;5108235;27;43774;-71
2023/10/19 00:10:34;;;;;;;2.30;2.30;;;18.90;71.50;;;;;;5108547;27;43362;-71
2023/10/19 00:13:04;;;;;;;1.90;1.90;;;18.80;71.40;;;;;;5107759;27;43453;-71
2023/10/19 00:15:34;;;;;;;1.90;1.90;;;18.80;71.50;;;;;;5109429;27;43376;-71
2023/10/19 00:18:19;;;;;;;2.30;2.20;;;18.80;71.50;;;;;;5108446;27;44974;-72
2023/10/19 00:20:59;;;;;;;1.90;1.90;;;18.80;71.60;;;;;;5108841;27;43437;-72
2023/10/19 00:23:30;;;;;;;2.00;2.00;;;18.70;71.80;;;;;;5103329;27;43423;-72
2023/10/19 00:25:59;;;;;;;2.03;2.00;;;18.70;72.00;;;;;;5109740;27;43983;-72
2023/10/19 00:28:28;;;;;;;1.67;1.67;;;18.80;71.80;;;;;;5109039;27;43936;-71
2023/10/19 00:31:04;;;;;;;2.00;2.00;;;18.80;71.50;;;;;;5107118;27;45056;-72
2023/10/19 00:33:32;;;;;;;1.87;1.77;;;18.90;71.40;;;;;;5107351;27;43418;-71
2023/10/19 00:36:07;;;;;;;1.83;1.83;;;18.90;71.40;;;;;;5101800;27;43510;-72
2023/10/19 00:38:40;;;;;;;2.00;2.00;;;18.90;71.70;;;;;;5107044;27;45263;-72
2023/10/19 00:41:13;;;;;;;1.93;1.93;;;18.80;71.50;;;;;;5107308;27;44690;-72
2023/10/19 00:43:44;;;;;;;2.00;1.90;;;18.80;71.50;;;;;;5108883;27;43380;-71
2023/10/19 00:46:20;;;;;;;1.73;1.73;;;18.80;71.60;;;;;;5109541;27;43404;-72
2023/10/19 00:48:55;;;;;;;1.97;1.97;;;18.80;71.70;;;;;;5108966;27;43615;-72
2023/10/19 00:51:40;;;;;;;1.97;1.97;;;18.80;72.10;;;;;;5107120;27;43706;-72
2023/10/19 00:54:11;;;;;;;1.87;1.87;;;18.70;71.80;;;;;;5107077;27;43409;-71
2023/10/19 00:56:41;;;;;;;1.77;1.77;;;18.70;71.80;;;;;;5107505;27;43472;-71
2023/10/19 00:59:14;;;;;;;1.97;1.87;;;18.70;71.80;;;;;;5108335;27;43848;-72
2023/10/19 01:01:47;;;;;;;1.93;1.93;;;18.70;72.00;;;;;;5107152;27;44961;-71
2023/10/19 01:04:22;;;;;;;1.90;1.90;;;18.70;72.40;;;;;;5106951;27;43523;-71
2023/10/19 01:07:00;;;;;;;2.00;2.00;;;18.70;72.20;;;;;;5107455;27;43425;-72
2023/10/19 01:09:29;;;;;;;1.77;1.77;;;18.80;72.00;;;;;;5107015;27;46382;-72
2023/10/19 01:12:01;;;;;;;2.50;2.30;;;18.90;71.50;;;;;;5106438;27;45528;-72
2023/10/19 01:14:32;;;;;;;2.07;1.87;;;19.00;71.30;;;;;;5108122;27;43968;-66
2023/10/19 01:17:06;;;;;;;2.07;1.87;;;19.00;71.20;;;;;;5112052;27;43561;-66
2023/10/19 01:19:34;;;;;;;2.17;2.07;;;19.00;71.60;;;;;;5102562;27;45660;-66
2023/10/19 01:22:04;;;;;;;1.97;1.87;;;18.90;71.40;;;;;;5108885;27;44765;-66
2023/10/19 01:24:40;;;;;;;1.93;1.93;;;18.90;71.30;;;;;;5108768;27;43483;-66
2023/10/19 01:27:10;;;;;;;1.90;1.90;;;18.90;71.40;;;;;;5108866;27;43478;-66
2023/10/19 01:29:39;;;;;;;2.00;1.90;;;18.80;71.50;;;;;;5108181;27;45650;-65
2023/10/19 01:32:08;;;;;;;2.00;2.00;;;18.80;71.70;;;;;;5105437;27;44952;-66
2023/10/19 01:34:37;;;;;;;2.07;2.03;;;18.80;72.00;;;;;;5112609;27;43411;-65
2023/10/19 01:37:04;;;;;;;5.03;2.10;;;18.80;71.90;;;;;;5112617;27;43386;-66
2023/10/19 01:39:35;;;;;;;1.83;1.83;;;18.80;71.90;;;;;;5111921;27;44995;-66
2023/10/19 01:42:04;;;;;;;2.10;2.10;;;18.80;72.00;;;;;;5112159;27;45301;-66
2023/10/19 01:44:33;;;;;;;2.43;1.83;;;18.70;71.90;;;;;;5112340;27;43418;-66
2023/10/19 01:47:00;;;;;;;1.80;1.80;;;18.70;72.40;;;;;;5112491;27;43411;-66
2023/10/19 01:49:30;;;;;;;1.57;1.57;;;18.80;72.40;;;;;;5111521;27;45416;-66
2023/10/19 01:51:57;;;;;;;1.50;1.50;;;18.80;72.00;;;;;;5111760;27;44703;-66
2023/10/19 01:54:26;;;;;;;1.87;1.87;;;18.90;71.70;;;;;;5112168;27;43432;-66
2023/10/19 01:56:56;;;;;;;1.80;1.80;;;18.90;71.50;;;;;;5112451;27;43429;-67
2023/10/19 01:59:27;;;;;;;2.00;2.00;;;18.90;71.60;;;;;;5111576;27;46006;-66
2023/10/19 02:01:54;;;;;;;1.80;1.80;;;18.90;71.90;;;;;;5111350;27;44777;-65
2023/10/19 02:04:24;;;;;;;1.70;1.70;;;18.90;71.70;;;;;;5111918;27;43418;-67
2023/10/19 02:06:53;;;;;;;1.70;1.70;;;18.80;71.70;;;;;;5111774;27;43807;-65
2023/10/19 02:09:26;;;;;;;1.80;1.80;;;18.80;71.70;;;;;;5111609;27;45871;-64
2023/10/19 02:11:56;;;;;;;1.93;1.93;;;18.80;71.90;;;;;;5110752;27;44996;-65
2023/10/19 02:14:26;;;;;;;1.70;1.70;;;18.80;72.30;;;;;;5108870;27;43865;-65
2023/10/19 02:16:56;;;;;;;1.70;1.70;;;18.80;73.00;;;;;;5124373;27;43430;-66
2023/10/19 02:19:25;;;;;;;2.03;2.00;;;18.90;71.90;;;;;;5111376;27;45745;-66
2023/10/19 02:21:55;;;;;;;1.70;1.70;;;18.90;71.60;;;;;;5111645;27;45527;-66
2023/10/19 02:24:24;;;;;;;3.17;1.90;;;18.90;71.60;;;;;;5112388;27;43387;-67
2023/10/19 02:26:56;;;;;;;1.70;1.70;;;18.90;71.70;;;;;;5107773;27;43927;-66
2023/10/19 02:29:25;;;;;;;1.90;1.90;;;18.80;71.90;;;;;;5112319;27;43960;-66
2023/10/19 02:31:53;;;;;;;3.70;1.83;;;18.80;71.80;;;;;;5112857;27;43502;-66
2023/10/19 02:34:22;;;;;;;1.83;1.70;;;18.80;71.90;;;;;;5111073;27;43816;-66
2023/10/19 02:36:50;;;;;;;2.03;1.83;;;18.80;71.90;;;;;;5113650;27;43401;-66
2023/10/19 02:39:18;;;;;;;1.73;1.63;;;18.80;72.00;;;;;;5110896;27;45997;-66
2023/10/19 02:41:47;;;;;;;2.20;2.10;;;18.70;73.10;;;;;;5111891;27;43330;-66
2023/10/19 02:44:19;;;;;;;1.70;1.70;;;18.70;72.20;;;;;;5111052;27;43507;-68
2023/10/19 02:46:52;;;;;;;1.60;1.60;;;18.70;72.20;;;;;;5109412;27;43533;-71
2023/10/19 02:49:25;;;;;;;2.00;2.00;;;18.70;72.20;;;;;;5109096;27;46230;-71
2023/10/19 02:51:54;;;;;;;2.00;1.90;;;18.70;72.30;;;;;;5108886;27;44439;-71
2023/10/19 02:54:27;;;;;;;2.00;1.90;;;18.70;72.70;;;;;;5109022;27;43840;-72
2023/10/19 02:56:58;;;;;;;1.53;1.53;;;18.70;73.10;;;;;;5109741;27;43431;-72
2023/10/19 02:59:28;;;;;;;1.70;1.70;;;18.80;72.40;;;;;;5108640;27;46013;-71
2023/10/19 03:02:01;;;;;;;2.00;2.00;;;18.90;72.00;;;;;;5110500;27;43350;-71
2023/10/19 03:04:29;;;;;;;1.80;1.80;;;18.90;71.80;;;;;;5110226;27;43377;-71
2023/10/19 03:06:58;;;;;;;1.80;1.80;;;18.90;71.70;;;;;;5108563;27;43968;-71
2023/10/19 03:09:29;;;;;;;1.73;1.73;;;18.90;72.80;;;;;;5108577;27;45989;-71
2023/10/19 03:11:59;;;;;;;1.80;1.80;;;18.90;72.00;;;;;;5097603;27;43982;-71
2023/10/19 03:14:28;;;;;;;1.70;1.70;;;18.90;71.80;;;;;;5108964;27;43364;-71
2023/10/19 03:16:57;;;;;;;1.70;1.70;;;18.80;71.80;;;;;;5109027;27;43463;-70
2023/10/19 03:19:24;;;;;;;1.90;1.80;;;18.80;71.90;;;;;;5108339;27;45892;-70
2023/10/19 03:21:55;;;;;;;1.70;1.70;;;18.80;72.30;;;;;;5108510;27;43435;-71
2023/10/19 03:24:35;;;;;;;1.70;1.70;;;18.80;72.40;;;;;;5106652;27;43408;-71
2023/10/19 03:27:08;;;;;;;1.60;1.60;;;18.80;72.20;;;;;;5108835;27;43517;-71
2023/10/19 03:29:39;;;;;;;1.87;1.87;;;18.90;72.00;;;;;;5107854;27;45739;-71
2023/10/19 03:32:07;;;;;;;1.73;1.73;;;18.80;71.80;;;;;;5108546;27;44413;-71
2023/10/19 03:34:37;;;;;;;1.60;1.60;;;18.80;71.90;;;;;;5112116;27;43485;-69
2023/10/19 03:37:12;;;;;;;1.60;1.60;;;18.80;72.30;;;;;;5126579;27;43516;-69
2023/10/19 03:39:40;;;;;;;1.80;1.80;;;18.80;72.40;;;;;;5126048;27;45379;-69
2023/10/19 03:42:08;;;;;;;1.50;1.50;;;18.80;72.10;;;;;;5124701;27;44980;-69
2023/10/19 03:44:45;;;;;;;1.50;1.50;;;18.80;72.10;;;;;;5125248;27;43488;-69
2023/10/19 03:47:18;;;;;;;1.50;1.50;;;18.80;72.20;;;;;;5126233;27;43861;-69
2023/10/19 03:49:47;;;;;;;1.50;1.50;;;18.80;72.30;;;;;;5125490;27;45756;-69
2023/10/19 03:52:21;;;;;;;1.43;1.43;;;18.80;72.80;;;;;;5125022;27;44915;-69
2023/10/19 03:54:50;;;;;;;1.53;1.53;;;18.80;72.50;;;;;;5125446;27;43412;-69
2023/10/19 03:57:22;;;;;;;1.50;1.50;;;18.80;72.40;;;;;;5126556;27;43553;-69
2023/10/19 03:59:56;;;;;;;1.50;1.50;;;18.80;72.40;;;;;;5125431;27;45723;-69
2023/10/19 04:02:24;;;;;;;1.50;1.50;;;18.70;72.30;;;;;;5141856;27;44437;-69
2023/10/19 04:04:55;;;;;;;1.70;1.70;;;18.70;72.40;;;;;;5126461;27;43713;-69
2023/10/19 04:07:25;;;;;;;1.83;1.73;;;18.70;72.90;;;;;;5120141;27;43432;-68
2023/10/19 04:10:09;;;;;;;1.50;1.50;;;18.80;72.70;;;;;;5124141;27;43978;-69
2023/10/19 04:12:38;;;;;;;1.57;1.57;;;18.90;73.00;;;;;;5125755;27;43394;-69
2023/10/19 04:15:13;;;;;;;1.60;1.60;;;19.00;71.80;;;;;;5126326;27;43453;-69
2023/10/19 04:17:42;;;;;;;1.27;1.27;;;19.20;71.50;;;;;;5125514;27;43466;-70
2023/10/19 04:20:26;;;;;;;1.30;1.30;;;19.20;71.20;;;;;;5125258;27;43590;-70
2023/10/19 04:22:54;;;;;;;1.43;1.43;;;19.20;71.10;;;;;;5126746;27;43402;-69
2023/10/19 04:25:25;;;;;;;1.53;1.53;;;19.10;71.20;;;;;;5125145;27;43287;-69
2023/10/19 04:27:56;;;;;;;1.57;1.57;;;19.10;71.50;;;;;;5126857;27;43385;-70
2023/10/19 04:30:26;;;;;;;1.60;1.50;;;19.00;71.90;;;;;;5125691;27;43885;-71
2023/10/19 04:32:57;;;;;;;1.50;1.50;;;19.00;72.00;;;;;;5120229;27;43376;-69
2023/10/19 04:35:29;;;;;;;1.33;1.33;;;18.90;71.90;;;;;;5109283;27;43533;-69
2023/10/19 04:37:58;;;;;;;1.43;1.43;;;18.90;71.90;;;;;;5114092;27;43397;-69
2023/10/19 04:40:26;;;;;;;1.30;1.30;;;18.90;72.00;;;;;;5125837;27;43875;-69
2023/10/19 04:42:54;;;;;;;1.60;1.60;;;18.80;72.10;;;;;;5125617;27;43331;-69
2023/10/19 04:45:23;;;;;;;1.40;1.40;;;18.80;72.70;;;;;;5117907;27;43344;-71
2023/10/19 04:47:54;;;;;;;1.47;1.47;;;18.80;72.50;;;;;;5108889;27;43416;-71
2023/10/19 04:50:23;;;;;;;1.33;1.33;;;18.80;72.40;;;;;;5103320;27;43901;-71
2023/10/19 04:52:51;;;;;;;1.30;1.30;;;18.80;72.40;;;;;;5109002;27;43412;-72
2023/10/19 04:55:19;;;;;;;1.40;1.40;;;18.80;72.50;;;;;;5108770;27;43956;-71
2023/10/19 04:57:47;;;;;;;1.40;1.40;;;18.80;72.70;;;;;;5109010;27;43408;-71
2023/10/19 05:00:16;;;;;;;1.43;1.43;;;18.80;72.90;;;;;;5106507;27;44998;-71
2023/10/19 05:02:44;;;;;;;1.40;1.40;;;18.80;72.60;;;;;;5108440;27;43590;-72
2023/10/19 05:05:16;;;;;;;1.40;1.40;;;18.90;72.30;;;;;;5104299;27;43454;-71
2023/10/19 05:07:45;;;;;;;1.33;1.33;;;19.10;72.00;;;;;;5104158;27;43485;-71
2023/10/19 05:10:13;;;;;;;1.50;1.50;;;19.10;71.50;;;;;;5111962;27;43897;-71
2023/10/19 05:12:41;;;;;;;1.47;1.40;;;19.20;71.50;;;;;;5111532;27;43344;-71
2023/10/19 05:15:09;;;;;;;1.30;1.30;;;19.10;71.40;;;;;;5109684;27;43441;-72
2023/10/19 05:17:38;;;;;;;1.67;1.30;;;19.10;71.70;;;;;;5112215;27;43401;-71
2023/10/19 05:20:08;;;;;;;1.30;1.30;;;19.00;71.80;;;;;;5112012;27;43622;-72
2023/10/19 05:22:37;;;;;;;1.30;1.30;;;19.00;73.00;;;;;;5111461;27;43501;-72
2023/10/19 05:25:07;;;;;;;1.50;1.50;;;18.90;72.20;;;;;;5111974;27;43387;-72
2023/10/19 05:27:35;;;;;;;1.40;1.40;;;18.90;72.20;;;;;;5112179;27;43656;-71
2023/10/19 05:30:04;;;;;;;1.20;1.20;;;18.90;72.20;;;;;;5111474;27;43623;-72
2023/10/19 05:32:33;;;;;;;1.50;1.40;;;18.80;72.30;;;;;;5110322;27;43669;-71
2023/10/19 05:35:04;;;;;;;1.20;1.20;;;18.80;72.70;;;;;;5115715;27;43421;-71
2023/10/19 05:37:32;;;;;;;1.50;1.50;;;18.80;72.70;;;;;;5111803;27;43954;-71
2023/10/19 05:40:04;;;;;;;1.40;1.40;;;18.80;72.40;;;;;;5111530;27;43869;-72
2023/10/19 05:42:34;;;;;;;1.27;1.27;;;18.80;72.40;;;;;;5109236;27;43473;-72
2023/10/19 05:45:03;;;;;;;1.47;1.47;;;18.80;72.40;;;;;;5111711;27;43420;-72
2023/10/19 05:47:31;;;;;;;1.27;1.27;;;18.80;72.50;;;;;;5112203;27;43463;-70
2023/10/19 05:49:59;;;;;;;1.17;1.17;;;18.80;73.10;;;;;;5111684;27;43615;-71
2023/10/19 05:52:29;;;;;;;1.50;1.50;;;18.80;72.90;;;;;;5102139;27;43367;-72
2023/10/19 05:54:57;;;;;;;1.20;1.20;;;18.90;72.60;;;;;;5112939;27;43437;-66
2023/10/19 05:57:26;;;;;;;1.30;1.30;;;19.00;72.20;;;;;;5113910;27;43448;-66
2023/10/19 05:59:54;;;;;;;1.20;1.20;;;19.10;71.80;;;;;;5109287;27;43621;-66
2023/10/19 06:02:22;;;;;;;1.23;1.23;;;19.20;71.60;;;;;;5113281;27;43438;-65
2023/10/19 06:05:00;;;;;;;1.20;1.20;;;19.10;71.50;;;;;;5113322;27;43455;-67
2023/10/19 06:07:28;;;;;;;1.13;1.13;;;19.10;71.60;;;;;;5113610;27;43560;-67
2023/10/19 06:09:56;;;;;;;1.13;1.13;;;19.10;71.90;;;;;;5113272;27;43920;-66
2023/10/19 06:12:26;;;;;;;1.13;1.13;;;19.00;72.10;;;;;;5113254;27;43512;-66
2023/10/19 06:14:54;;;;;;;1.10;1.10;;;19.00;72.50;;;;;;5113570;27;43522;-65
2023/10/19 06:17:23;;;;;;;1.20;1.20;;;18.90;72.30;;;;;;5112912;27;43500;-66
2023/10/19 06:19:51;;;;;;;1.20;1.20;;;18.90;72.30;;;;;;5113116;27;43605;-66
2023/10/19 06:22:19;;;;;;;1.30;1.30;;;18.90;72.40;;;;;;5111442;27;45022;-66
2023/10/19 06:24:47;;;;;;;1.10;1.10;;;18.80;72.40;;;;;;5112927;27;44460;-65
2023/10/19 06:27:15;;;;;;;1.20;1.20;;;18.80;72.90;;;;;;5113537;27;43388;-66
2023/10/19 06:29:44;;;;;;;1.23;1.23;;;18.80;72.70;;;;;;5112761;27;44812;-67
2023/10/19 06:32:14;;;;;;;1.10;1.10;;;18.80;72.60;;;;;;5112938;27;43397;-66
2023/10/19 06:34:42;;;;;;;1.20;1.20;;;18.80;72.60;;;;;;5112763;27;43398;-66
2023/10/19 06:37:11;;;;;;;1.20;1.20;;;18.80;72.70;;;;;;5111993;27;43511;-67
2023/10/19 06:39:41;;;;;;;1.30;1.30;;;18.80;73.00;;;;;;5113020;27;43687;-66
2023/10/19 06:42:13;;;;;;;1.20;1.20;;;18.80;73.20;;;;;;5107470;27;43432;-66
2023/10/19 06:44:44;;;;;;;1.20;1.20;;;18.90;73.00;;;;;;5112889;27;43348;-66
2023/10/19 06:47:13;;;;;;;1.20;1.20;;;19.00;72.60;;;;;;5113191;27;43478;-66
2023/10/19 06:49:41;;;;;;;1.30;1.30;;;19.10;72.20;;;;;;5112492;27;44099;-66
2023/10/19 06:52:11;;;;;;;1.20;1.20;;;19.20;71.80;;;;;;5111943;27;43461;-67
2023/10/19 06:54:39;;;;;;;1.20;1.20;;;19.20;71.60;;;;;;5112555;27;43381;-66
2023/10/19 06:57:08;;;;;;;1.10;1.10;;;19.20;71.70;;;;;;5108166;27;43808;-67
2023/10/19 06:59:37;;;;;;;1.20;1.20;;;19.10;71.70;;;;;;5112165;27;43886;-66
2023/10/19 07:02:07;;;;;;;1.27;1.27;;;19.00;71.90;;;;;;5111186;27;44525;-66
2023/10/19 07:04:36;;;;;;;1.30;1.30;;;19.00;72.50;;;;;;5114952;27;43405;-69
2023/10/19 07:07:04;;;;;;;1.17;1.17;;;19.00;72.60;;;;;;5127289;27;43391;-70
2023/10/19 07:09:34;;;;;;;1.30;1.30;;;18.90;72.40;;;;;;5114682;27;45482;-69
2023/10/19 07:12:03;;;;;;;1.00;1.00;;;18.90;72.40;;;;;;5124786;27;44711;-70
2023/10/19 07:14:33;;;;;;;1.10;1.10;;;18.90;72.40;;;;;;5125846;27;43427;-69
2023/10/19 07:17:01;;;;;;;1.10;1.10;;;18.80;73.20;;;;;;5126951;27;43364;-69
2023/10/19 07:19:30;;;;;;;1.20;1.20;;;18.80;73.00;;;;;;5126338;27;43765;-70
2023/10/19 07:21:58;;;;;;;0.90;0.90;;;18.80;72.90;;;;;;5126674;27;43377;-69
2023/10/19 07:24:26;;;;;;;1.10;1.10;;;18.80;72.70;;;;;;5125676;27;43340;-70
2023/10/19 07:27:03;;;;;;;1.10;1.10;;;18.80;72.70;;;;;;5126470;27;43397;-69
2023/10/19 07:29:33;;;;;;;1.07;1.07;;;18.80;72.70;;;;;;5118661;27;43843;-69
2023/10/19 07:32:01;;;;;;;1.17;1.17;;;18.80;72.90;;;;;;5113095;27;43330;-69
2023/10/19 07:34:34;;;;;;;1.30;1.30;;;18.80;74.10;;;;;;5124106;27;43439;-69
2023/10/19 07:37:03;;;;;;;1.10;1.10;;;18.80;73.10;;;;;;5125683;27;43351;-70
2023/10/19 07:39:33;;;;;;;1.00;1.00;;;19.00;72.90;;;;;;5124488;27;43674;-69
2023/10/19 07:42:05;;;;;;;1.30;1.30;;;19.10;72.40;;;;;;5125708;27;43381;-69
2023/10/19 07:44:33;;;;;;;1.33;1.13;;;19.10;72.00;;;;;;5125662;27;43382;-69
2023/10/19 07:47:01;;;;;;;1.27;1.17;;;19.20;71.90;;;;;;5126258;27;43396;-70
2023/10/19 07:49:29;;;;;;;0.93;0.93;;;19.10;71.70;;;;;;5126077;27;43933;-70
2023/10/19 07:51:59;;;;;;;1.10;1.10;;;19.10;71.90;;;;;;5124281;27;43476;-70
2023/10/19 07:54:27;;;;;;;1.03;1.03;;;19.00;72.10;;;;;;5125786;27;43393;-70
2023/10/19 07:56:57;;;;;;;1.13;1.10;;;18.90;72.40;;;;;;5126183;27;43416;-69
2023/10/19 07:59:25;;;;;;;2.87;1.40;;;19.00;72.80;;;;;;5124461;27;43614;-69
2023/10/19 08:01:53;;;;;;;1.10;1.10;;;18.90;72.60;;;;;;5125348;27;43428;-70
2023/10/19 08:04:22;;;;;;;2.10;1.20;;;18.90;72.60;;;;;;5124350;27;43937;-70
2023/10/19 08:06:50;;;;;;;2.90;1.50;;;18.90;72.70;;;;;;5127223;27;43373;-69
2023/10/19 08:09:22;;;;;;;4.80;1.60;;;18.80;72.70;;;;;;5125222;27;45633;-69
2023/10/19 08:11:55;;;;;;;3.87;1.60;;;18.80;73.30;;;;;;5126271;27;43375;-69
2023/10/19 08:14:24;;;;;;;2.73;1.10;;;18.80;73.10;;;;;;5110377;27;43401;-72
2023/10/19 08:16:52;;;;;;;2.37;1.20;;;18.80;72.90;;;;;;5109975;27;43468;-71
2023/10/19 08:19:21;;;;;;;1.20;1.20;;;18.80;72.90;;;;;;5107323;27;45338;-72
2023/10/19 08:21:49;;;;;;;1.40;1.30;;;18.80;73.00;;;;;;5109267;27;43371;-72
2023/10/19 08:24:20;;;;;;;1.20;1.20;;;18.80;73.10;;;;;;5109307;27;43439;-71
2023/10/19 08:26:48;;;;;;;1.10;1.10;;;18.80;73.70;;;;;;5109783;27;43308;-71
2023/10/19 08:29:19;;;;;;;1.53;1.50;;;18.90;73.50;;;;;;5107343;27;43610;-71
2023/10/19 08:31:47;;;;;;;1.30;1.20;;;19.00;73.10;;;;;;5108478;27;43522;-71
2023/10/19 08:34:15;;;;;;;1.00;1.00;;;19.10;72.70;;;;;;5109558;27;43345;-67
2023/10/19 08:36:43;;;;;;;2.03;1.30;;;19.20;72.30;;;;;;5111250;27;43540;-67
2023/10/19 08:39:13;;;;;;;1.20;1.20;;;19.20;72.10;;;;;;5110786;27;43618;-67
2023/10/19 08:41:43;;;;;;;1.67;1.10;;;19.20;72.00;;;;;;5114178;27;43397;-66
2023/10/19 08:44:11;;;;;;;1.23;1.07;;;19.10;72.00;;;;;;5114829;27;43358;-70
2023/10/19 08:46:40;;;;;;;1.60;1.10;;;19.10;72.30;;;;;;5114386;27;43509;-66
2023/10/19 08:49:10;;;;;;;1.60;1.00;;;19.00;72.60;;;;;;5103505;27;43929;-67
2023/10/19 08:51:38;;;;;;;1.20;1.20;;;19.00;73.10;;;;;;5103585;27;43399;-66
2023/10/19 08:54:06;;;;;;;1.07;1.07;;;19.00;73.00;;;;;;5113076;27;43477;-66
2023/10/19 08:56:35;;;;;;;1.10;1.10;;;18.90;72.80;;;;;;5114555;27;43488;-66
2023/10/19 08:59:04;;;;;;;1.10;1.10;;;18.90;72.90;;;;;;5114359;27;43985;-66
2023/10/19 09:01:35;;;;;;;1.20;1.20;;;18.90;73.00;;;;;;5114409;27;43394;-65
2023/10/19 09:04:05;;;;;;;1.27;1.17;;;18.80;73.50;;;;;;5113900;27;43495;-66
2023/10/19 09:06:41;;;;;;;1.00;1.00;;;18.80;73.50;;;;;;5114667;27;43416;-65
2023/10/19 09:09:16;;;;;;;1.03;1.03;;;18.90;73.30;;;;;;5113794;27;43856;-66
2023/10/19 09:11:46;;;;;;;1.13;1.13;;;18.80;73.20;;;;;;5102202;27;44124;-65
2023/10/19 09:14:17;;;;;;;1.00;1.00;;;18.80;73.20;;;;;;5110348;27;43510;-66
2023/10/19 09:16:55;;;;;;;1.07;1.07;;;18.80;73.30;;;;;;5104516;27;43477;-67
2023/10/19 09:19:37;;;;;;;1.10;1.10;;;18.80;73.90;;;;;;5114588;27;43886;-66
2023/10/19 09:22:07;;;;;;;1.03;1.03;;;18.80;73.70;;;;;;5110573;27;43496;-66
2023/10/19 09:24:35;;;;;;;1.10;1.10;;;19.00;73.40;;;;;;5115289;27;43488;-70
2023/10/19 09:27:05;;;;;;;1.10;1.10;;;19.10;73.00;;;;;;5129025;27;43549;-70
2023/10/19 09:29:34;;;;;;;1.17;1.17;;;19.20;72.60;;;;;;5129522;27;43589;-70
2023/10/19 09:32:03;;;;;;;1.10;1.10;;;19.20;72.30;;;;;;5129197;27;43444;-69
2023/10/19 09:34:32;;;;;;;1.10;1.10;;;19.20;72.10;;;;;;5130003;27;43501;-70
2023/10/19 09:37:02;;;;;;;1.00;1.00;;;19.20;72.30;;;;;;5130981;27;43537;-70
2023/10/19 09:39:34;;;;;;;1.10;1.10;;;19.10;72.40;;;;;;5129193;27;44052;-69
2023/10/19 09:42:05;;;;;;;1.00;1.00;;;19.10;72.70;;;;;;5129913;27;43358;-68
2023/10/19 09:44:41;;;;;;;1.10;1.10;;;19.00;73.10;;;;;;5126421;27;43374;-68
2023/10/19 09:47:12;;;;;;;1.00;1.00;;;19.00;73.00;;;;;;5111764;27;44007;-69
2023/10/19 09:49:42;;;;;;;0.93;0.93;;;19.00;72.90;;;;;;5111221;27;43823;-69
2023/10/19 09:52:11;;;;;;;1.13;1.13;;;19.00;73.00;;;;;;5110242;27;43272;-69
2023/10/19 09:54:47;;;;;;;1.10;1.10;;;18.90;73.00;;;;;;5111327;27;43457;-69
2023/10/19 09:57:17;;;;;;;1.00;1.00;;;18.90;73.70;;;;;;5111829;27;43833;-69
2023/10/19 09:59:49;;;;;;;2.30;1.00;;;18.90;73.50;;;;;;5110982;27;43611;-69
2023/10/19 10:02:18;;;;;;;1.20;1.20;;;18.90;73.30;;;;;;5110871;27;43387;-69
2023/10/19 10:04:48;;;;;;;1.20;1.20;;;18.90;73.20;;;;;;5111227;27;43337;-68
2023/10/19 10:07:16;;;;;;;1.10;1.10;;;18.90;73.30;;;;;;5111220;27;43503;-68
2023/10/19 10:09:59;;;;;;;1.20;1.20;;;18.80;73.30;;;;;;5101928;27;43682;-70
2023/10/19 10:12:28;;;;;;;1.30;1.30;;;18.80;73.80;;;;;;5110177;27;43922;-70
2023/10/19 10:15:03;;;;;;;3.13;1.27;;;18.90;73.90;;;;;;5111279;27;43384;-70
2023/10/19 10:17:33;;;;;;;1.30;1.30;;;19.00;73.50;;;;;;5111316;27;43392;-70
2023/10/19 10:20:30;;;;;;;1.73;1.50;;;19.20;73.10;;;;;;5109331;27;45419;-69
2023/10/19 10:23:21;;;;;;;2.10;1.33;;;19.30;72.70;;;;;;5109114;27;44732;-70
2023/10/19 10:25:50;;;;;;;1.53;1.30;;;19.40;72.50;;;;;;5110642;27;43831;-70
2023/10/19 10:28:19;;;;;;;1.90;1.30;;;19.30;72.30;;;;;;5110997;27;44032;-70
2023/10/19 10:31:10;;;;;;;1.03;1.03;;;19.20;72.30;;;;;;5110385;27;43658;-69
2023/10/19 10:33:38;;;;;;;1.10;1.10;;;19.20;72.60;;;;;;5111640;27;43488;-70
2023/10/19 10:36:07;;;;;;;1.20;1.20;;;19.10;73.30;;;;;;5112936;27;43420;-66
2023/10/19 10:38:36;;;;;;;1.37;1.27;;;19.10;73.60;;;;;;5113253;27;44396;-66
2023/10/19 10:41:04;;;;;;;1.57;1.50;;;19.10;73.30;;;;;;5111523;27;45945;-66
2023/10/19 10:43:32;;;;;;;1.20;1.20;;;19.00;73.10;;;;;;5113046;27;43365;-65
2023/10/19 10:46:04;;;;;;;1.20;1.20;;;19.00;73.20;;;;;;5112859;27;43730;-66
2023/10/19 10:48:36;;;;;;;1.20;1.20;;;18.90;73.50;;;;;;5113428;27;43404;-66
2023/10/19 10:51:04;;;;;;;1.23;1.23;;;19.00;74.80;;;;;;5112702;27;43626;-67
2023/10/19 10:53:32;;;;;;;1.23;1.23;;;18.90;73.60;;;;;;5112682;27;43380;-66
2023/10/19 10:56:01;;;;;;;1.27;1.27;;;18.90;73.50;;;;;;5111654;27;43271;-72
2023/10/19 10:58:29;;;;;;;1.27;1.27;;;19.00;73.70;;;;;;5111173;27;43338;-71
2023/10/19 11:00:57;;;;;;;1.40;1.30;;;18.90;73.70;;;;;;5109663;27;43743;-70
2023/10/19 11:03:29;;;;;;;1.30;1.30;;;18.90;74.40;;;;;;5109266;27;43292;-72
2023/10/19 11:06:07;;;;;;;1.20;1.20;;;19.00;74.70;;;;;;5109629;27;43288;-71
2023/10/19 11:08:36;;;;;;;1.70;1.50;;;19.10;74.30;;;;;;5110252;27;43366;-70
2023/10/19 11:11:05;;;;;;;1.13;1.13;;;19.20;73.90;;;;;;5109820;27;43606;-71
2023/10/19 11:13:34;;;;;;;1.10;1.10;;;19.30;73.70;;;;;;5110155;27;43444;-71
2023/10/19 11:16:05;;;;;;;1.20;1.10;;;19.30;73.30;;;;;;5110344;27;43446;-72
2023/10/19 11:18:35;;;;;;;1.10;1.10;;;19.20;73.90;;;;;;5107614;27;43514;-72
2023/10/19 11:21:09;;;;;;;1.37;1.27;;;19.20;73.90;;;;;;5108678;27;45805;-72
2023/10/19 11:23:37;;;;;;;1.10;1.10;;;19.20;73.50;;;;;;5110080;27;43318;-71
2023/10/19 11:26:06;;;;;;;1.00;1.00;;;19.20;73.40;;;;;;5108713;27;43400;-71
2023/10/19 11:28:38;;;;;;;1.10;1.10;;;19.10;73.40;;;;;;5110424;27;43440;-71
2023/10/19 11:31:17;;;;;;;1.03;1.03;;;19.10;74.00;;;;;;5109202;27;43854;-71
2023/10/19 11:33:48;;;;;;;1.10;1.10;;;19.10;74.60;;;;;;5109357;27;43538;-72
2023/10/19 11:36:18;;;;;;;1.10;1.10;;;19.10;74.20;;;;;;5109988;27;43423;-72
2023/10/19 11:38:46;;;;;;;1.00;1.00;;;19.00;73.90;;;;;;5107159;27;43422;-72
2023/10/19 11:41:15;;;;;;;1.00;1.00;;;19.00;74.00;;;;;;5109428;27;43605;-71
2023/10/19 11:43:44;;;;;;;1.30;1.20;;;19.00;74.10;;;;;;5109981;27;43451;-72
2023/10/19 11:46:14;;;;;;;1.10;1.10;;;19.00;75.80;;;;;;5110693;27;43377;-66
2023/10/19 11:48:43;;;;;;;1.20;1.20;;;19.00;74.90;;;;;;5101193;27;43386;-67
2023/10/19 11:51:11;;;;;;;1.20;1.20;;;19.20;74.70;;;;;;5110904;27;45677;-67
2023/10/19 11:53:41;;;;;;;1.30;1.20;;;19.30;74.20;;;;;;5112156;27;43374;-66
2023/10/19 11:56:11;;;;;;;1.40;1.40;;;19.40;73.80;;;;;;5112101;27;43438;-66
2023/10/19 11:58:41;;;;;;;1.30;1.30;;;19.40;73.20;;;;;;5112569;27;43411;-66
2023/10/19 12:01:11;;;;;;;1.43;1.30;;;19.40;73.30;;;;;;5112377;27;43668;-66
2023/10/19 12:03:40;;;;;;;1.30;1.30;;;19.30;73.30;;;;;;5112043;27;43351;-67
2023/10/19 12:06:09;;;;;;;1.60;1.50;;;19.20;73.40;;;;;;5112233;27;43768;-66
2023/10/19 12:08:38;;;;;;;2.83;1.70;;;19.20;73.90;;;;;;5112506;27;43452;-66
2023/10/19 12:11:15;;;;;;;1.67;1.57;;;19.20;74.60;;;;;;5111591;27;43897;-66
2023/10/19 12:13:44;;;;;;;1.50;1.40;;;19.10;74.30;;;;;;5111653;27;43357;-67
2023/10/19 12:16:13;;;;;;;1.40;1.40;;;19.10;74.00;;;;;;5111374;27;43445;-67
2023/10/19 12:18:41;;;;;;;1.70;1.60;;;19.10;74.10;;;;;;5112592;27;43890;-66
2023/10/19 12:21:11;;;;;;;2.50;1.70;;;19.10;74.30;;;;;;5112071;27;43578;-66
2023/10/19 12:23:40;;;;;;;3.23;2.10;;;19.00;74.90;;;;;;5111592;27;43491;-66
2023/10/19 12:26:12;;;;;;;2.33;1.70;;;19.10;75.20;;;;;;5111150;27;44032;-67
2023/10/19 12:28:40;;;;;;;3.60;2.20;;;19.10;74.80;;;;;;5112558;27;43431;-67
2023/10/19 12:31:09;;;;;;;1.60;1.50;;;19.20;74.50;;;;;;5110306;27;43849;-65
2023/10/19 12:33:38;;;;;;;2.97;1.73;;;19.20;74.00;;;;;;5106092;27;45067;-65
2023/10/19 12:36:23;;;;;;;2.27;1.80;;;19.20;74.50;;;;;;5109877;27;43441;-65
2023/10/19 12:38:52;;;;;;;1.57;1.57;;;19.20;74.70;;;;;;5111155;27;43478;-66
2023/10/19 12:41:21;;;;;;;2.43;1.60;;;19.20;74.30;;;;;;5098908;27;43672;-65
2023/10/19 12:43:52;;;;;;;1.97;1.87;;;19.20;74.20;;;;;;5111507;27;43341;-65
2023/10/19 12:46:24;;;;;;;1.73;1.50;;;19.10;74.10;;;;;;5111041;27;43454;-66
2023/10/19 12:48:52;;;;;;;1.77;1.67;;;19.10;74.30;;;;;;5111731;27;43383;-65
2023/10/19 12:51:23;;;;;;;1.83;1.70;;;19.10;75.10;;;;;;5110633;27;43562;-67
2023/10/19 12:53:52;;;;;;;2.43;1.67;;;19.10;74.90;;;;;;5111382;27;43361;-66
2023/10/19 12:56:24;;;;;;;1.73;1.70;;;19.20;74.50;;;;;;5109584;27;43327;-70
2023/10/19 12:58:52;;;;;;;1.70;1.60;;;19.30;74.30;;;;;;5109009;27;43434;-69
2023/10/19 13:01:21;;;;;;;1.60;1.50;;;19.40;73.90;;;;;;5107864;27;43929;-70
2023/10/19 13:03:50;;;;;;;1.90;1.80;;;19.30;74.20;;;;;;5108045;27;43571;-70